sensor_id;sensor_type;location;lat;lon;timestamp;P1;durP1;ratioP1;P2;durP2;ratioP2
2061;SDS011;11070;51.336;12.340;2024-03-22T00:00:05;17.43;;;11.80;;
2061;SDS011;11070;51.336;12.340;2024-03-22T00:02:31;18.58;;;12.38;;
2061;SDS011;11070;51.336;12.340;2024-03-22T00:04:56;19.87;;;13.07;;
2061;SDS011;11070;51.336;12.340;2024-03-22T00:07:22;20.20;;;11.83;;
2061;SDS011;11070;51.336;12.340;2024-03-22T00:09:48;18.20;;;12.20;;
2061;SDS011;11070;51.336;12.340;2024-03-22T00:12:13;21.17;;;13.40;;
2061;SDS011;11070;51.336;12.340;2024-03-22T00:14:39;20.33;;;12.60;;
2061;SDS011;11070;51.336;12.340;2024-03-22T00:17:04;18.93;;;12.80;;
2061;SDS011;11070;51.336;12.340;2024-03-22T00:19:30;24.73;;;15.00;;
2061;SDS011;11070;51.336;12.340;2024-03-22T00:21:56;23.27;;;13.00;;
2061;SDS011;11070;51.336;12.340;2024-03-22T00:24:21;21.20;;;13.40;;
2061;SDS011;11070;51.336;12.340;2024-03-22T00:26:47;19.70;;;13.23;;
2061;SDS011;11070;51.336;12.340;2024-03-22T00:29:13;20.37;;;14.57;;
2061;SDS011;11070;51.336;12.340;2024-03-22T00:31:38;22.10;;;13.60;;
2061;SDS011;11070;51.336;12.340;2024-03-22T00:34:04;23.00;;;15.30;;
2061;SDS011;11070;51.336;12.340;2024-03-22T00:36:30;22.40;;;15.10;;
2061;SDS011;11070;51.336;12.340;2024-03-22T00:38:55;26.50;;;16.30;;
2061;SDS011;11070;51.336;12.340;2024-03-22T00:41:22;23.13;;;14.43;;
2061;SDS011;11070;51.336;12.340;2024-03-22T00:43:47;24.90;;;15.37;;
2061;SDS011;11070;51.336;12.340;2024-03-22T00:46:13;22.77;;;14.97;;
2061;SDS011;11070;51.336;12.340;2024-03-22T00:48:38;24.33;;;15.20;;
2061;SDS011;11070;51.336;12.340;2024-03-22T00:51:04;23.20;;;14.60;;
2061;SDS011;11070;51.336;12.340;2024-03-22T00:53:30;23.73;;;15.50;;
2061;SDS011;11070;51.336;12.340;2024-03-22T00:55:56;29.50;;;15.77;;
2061;SDS011;11070;51.336;12.340;2024-03-22T00:58:24;24.17;;;16.30;;
2061;SDS011;11070;51.336;12.340;2024-03-22T01:00:53;25.17;;;16.35;;
2061;SDS011;11070;51.336;12.340;2024-03-22T01:03:19;25.42;;;15.52;;
2061;SDS011;11070;51.336;12.340;2024-03-22T01:05:45;24.47;;;15.80;;
2061;SDS011;11070;51.336;12.340;2024-03-22T01:08:11;27.20;;;16.77;;
2061;SDS011;11070;51.336;12.340;2024-03-22T01:10:37;21.80;;;14.03;;
2061;SDS011;11070;51.336;12.340;2024-03-22T01:13:02;27.23;;;16.13;;
2061;SDS011;11070;51.336;12.340;2024-03-22T01:15:28;28.20;;;16.40;;
2061;SDS011;11070;51.336;12.340;2024-03-22T01:17:54;26.93;;;16.70;;
2061;SDS011;11070;51.336;12.340;2024-03-22T01:20:20;26.88;;;16.35;;
2061;SDS011;11070;51.336;12.340;2024-03-22T01:22:45;25.43;;;16.27;;
2061;SDS011;11070;51.336;12.340;2024-03-22T01:25:11;31.30;;;17.73;;
2061;SDS011;11070;51.336;12.340;2024-03-22T01:27:37;29.23;;;17.30;;
2061;SDS011;11070;51.336;12.340;2024-03-22T01:30:03;28.20;;;17.43;;
2061;SDS011;11070;51.336;12.340;2024-03-22T01:32:29;32.35;;;17.73;;
2061;SDS011;11070;51.336;12.340;2024-03-22T01:34:55;34.85;;;19.48;;
2061;SDS011;11070;51.336;12.340;2024-03-22T01:37:22;33.72;;;18.77;;
2061;SDS011;11070;51.336;12.340;2024-03-22T01:39:48;30.27;;;17.70;;
2061;SDS011;11070;51.336;12.340;2024-03-22T01:42:13;29.63;;;18.10;;
2061;SDS011;11070;51.336;12.340;2024-03-22T01:44:39;31.97;;;18.40;;
2061;SDS011;11070;51.336;12.340;2024-03-22T01:47:04;32.43;;;20.13;;
2061;SDS011;11070;51.336;12.340;2024-03-22T01:49:30;29.33;;;18.47;;
2061;SDS011;11070;51.336;12.340;2024-03-22T01:51:56;32.20;;;20.33;;
2061;SDS011;11070;51.336;12.340;2024-03-22T01:54:22;33.60;;;19.60;;
2061;SDS011;11070;51.336;12.340;2024-03-22T01:56:47;30.23;;;19.40;;
2061;SDS011;11070;51.336;12.340;2024-03-22T01:59:13;32.83;;;18.40;;
2061;SDS011;11070;51.336;12.340;2024-03-22T02:01:40;35.95;;;20.38;;
2061;SDS011;11070;51.336;12.340;2024-03-22T02:04:05;35.03;;;19.43;;
2061;SDS011;11070;51.336;12.340;2024-03-22T02:06:31;33.40;;;18.93;;
2061;SDS011;11070;51.336;12.340;2024-03-22T02:08:57;38.05;;;20.65;;
2061;SDS011;11070;51.336;12.340;2024-03-22T02:11:24;34.00;;;19.73;;
2061;SDS011;11070;51.336;12.340;2024-03-22T02:13:51;32.75;;;19.63;;
2061;SDS011;11070;51.336;12.340;2024-03-22T02:16:17;32.37;;;18.97;;
2061;SDS011;11070;51.336;12.340;2024-03-22T02:18:43;32.13;;;18.87;;
2061;SDS011;11070;51.336;12.340;2024-03-22T02:21:09;32.17;;;19.05;;
2061;SDS011;11070;51.336;12.340;2024-03-22T02:23:36;30.98;;;17.02;;
2061;SDS011;11070;51.336;12.340;2024-03-22T02:26:02;30.65;;;17.17;;
2061;SDS011;11070;51.336;12.340;2024-03-22T02:28:29;29.13;;;17.35;;
2061;SDS011;11070;51.336;12.340;2024-03-22T02:30:57;33.90;;;17.23;;
2061;SDS011;11070;51.336;12.340;2024-03-22T02:33:23;29.17;;;17.65;;
2061;SDS011;11070;51.336;12.340;2024-03-22T02:35:49;27.83;;;16.98;;
2061;SDS011;11070;51.336;12.340;2024-03-22T02:38:16;29.33;;;17.77;;
2061;SDS011;11070;51.336;12.340;2024-03-22T02:40:42;34.65;;;18.20;;
2061;SDS011;11070;51.336;12.340;2024-03-22T02:43:09;30.42;;;17.60;;
2061;SDS011;11070;51.336;12.340;2024-03-22T02:45:35;30.53;;;17.80;;
2061;SDS011;11070;51.336;12.340;2024-03-22T02:48:00;30.37;;;17.90;;
2061;SDS011;11070;51.336;12.340;2024-03-22T02:50:26;30.00;;;17.57;;
2061;SDS011;11070;51.336;12.340;2024-03-22T02:52:52;27.17;;;17.50;;
2061;SDS011;11070;51.336;12.340;2024-03-22T02:55:18;31.70;;;18.00;;
2061;SDS011;11070;51.336;12.340;2024-03-22T02:57:44;28.03;;;17.23;;
2061;SDS011;11070;51.336;12.340;2024-03-22T03:00:10;28.13;;;16.30;;
2061;SDS011;11070;51.336;12.340;2024-03-22T03:02:35;32.92;;;17.40;;
2061;SDS011;11070;51.336;12.340;2024-03-22T03:05:01;26.20;;;16.43;;
2061;SDS011;11070;51.336;12.340;2024-03-22T03:07:27;27.83;;;16.77;;
2061;SDS011;11070;51.336;12.340;2024-03-22T03:09:53;23.77;;;15.30;;
2061;SDS011;11070;51.336;12.340;2024-03-22T03:12:19;24.90;;;16.53;;
2061;SDS011;11070;51.336;12.340;2024-03-22T03:14:44;27.40;;;16.37;;
2061;SDS011;11070;51.336;12.340;2024-03-22T03:17:10;22.93;;;15.10;;
2061;SDS011;11070;51.336;12.340;2024-03-22T03:19:36;25.00;;;16.10;;
2061;SDS011;11070;51.336;12.340;2024-03-22T03:22:02;23.40;;;14.95;;
2061;SDS011;11070;51.336;12.340;2024-03-22T03:24:28;24.95;;;16.33;;
2061;SDS011;11070;51.336;12.340;2024-03-22T03:26:53;23.27;;;15.50;;
2061;SDS011;11070;51.336;12.340;2024-03-22T03:29:19;21.70;;;14.80;;
2061;SDS011;11070;51.336;12.340;2024-03-22T03:31:45;22.13;;;15.13;;
2061;SDS011;11070;51.336;12.340;2024-03-22T03:34:11;26.90;;;16.50;;
2061;SDS011;11070;51.336;12.340;2024-03-22T03:36:36;24.67;;;15.20;;
2061;SDS011;11070;51.336;12.340;2024-03-22T03:39:02;27.95;;;15.75;;
2061;SDS011;11070;51.336;12.340;2024-03-22T03:41:29;28.63;;;16.40;;
2061;SDS011;11070;51.336;12.340;2024-03-22T03:43:54;24.33;;;15.60;;
2061;SDS011;11070;51.336;12.340;2024-03-22T03:46:20;23.33;;;14.87;;
2061;SDS011;11070;51.336;12.340;2024-03-22T03:48:46;20.67;;;13.53;;
2061;SDS011;11070;51.336;12.340;2024-03-22T03:51:11;19.50;;;12.90;;
2061;SDS011;11070;51.336;12.340;2024-03-22T03:53:37;28.13;;;13.40;;
2061;SDS011;11070;51.336;12.340;2024-03-22T03:56:03;23.20;;;14.20;;
2061;SDS011;11070;51.336;12.340;2024-03-22T03:58:28;21.03;;;14.33;;
2061;SDS011;11070;51.336;12.340;2024-03-22T04:00:54;17.73;;;12.73;;
2061;SDS011;11070;51.336;12.340;2024-03-22T04:03:20;19.13;;;13.60;;
2061;SDS011;11070;51.336;12.340;2024-03-22T04:05:45;20.87;;;12.87;;
2061;SDS011;11070;51.336;12.340;2024-03-22T04:08:11;18.40;;;13.20;;
2061;SDS011;11070;51.336;12.340;2024-03-22T04:10:37;18.30;;;12.83;;
2061;SDS011;11070;51.336;12.340;2024-03-22T04:13:02;18.87;;;12.10;;
2061;SDS011;11070;51.336;12.340;2024-03-22T04:15:28;18.60;;;13.23;;
2061;SDS011;11070;51.336;12.340;2024-03-22T04:17:56;23.43;;;14.03;;
2061;SDS011;11070;51.336;12.340;2024-03-22T04:20:22;20.48;;;13.00;;
2061;SDS011;11070;51.336;12.340;2024-03-22T04:22:47;17.07;;;12.33;;
2061;SDS011;11070;51.336;12.340;2024-03-22T04:25:17;20.85;;;11.90;;
2061;SDS011;11070;51.336;12.340;2024-03-22T04:27:42;17.33;;;12.10;;
2061;SDS011;11070;51.336;12.340;2024-03-22T04:30:08;16.73;;;11.30;;
2061;SDS011;11070;51.336;12.340;2024-03-22T04:32:35;17.08;;;11.70;;
2061;SDS011;11070;51.336;12.340;2024-03-22T04:35:00;15.57;;;10.70;;
2061;SDS011;11070;51.336;12.340;2024-03-22T04:37:27;19.98;;;11.07;;
2061;SDS011;11070;51.336;12.340;2024-03-22T04:39:52;16.27;;;11.33;;
2061;SDS011;11070;51.336;12.340;2024-03-22T04:42:18;19.73;;;10.83;;
2061;SDS011;11070;51.336;12.340;2024-03-22T04:44:44;16.73;;;10.82;;
2061;SDS011;11070;51.336;12.340;2024-03-22T04:47:10;14.37;;;10.77;;
2061;SDS011;11070;51.336;12.340;2024-03-22T04:49:36;12.90;;;10.37;;
2061;SDS011;11070;51.336;12.340;2024-03-22T04:52:01;14.57;;;10.80;;
2061;SDS011;11070;51.336;12.340;2024-03-22T04:54:27;12.90;;;9.70;;
2061;SDS011;11070;51.336;12.340;2024-03-22T04:56:53;14.70;;;10.00;;
2061;SDS011;11070;51.336;12.340;2024-03-22T04:59:18;15.63;;;11.30;;
2061;SDS011;11070;51.336;12.340;2024-03-22T05:01:44;15.40;;;11.70;;
2061;SDS011;11070;51.336;12.340;2024-03-22T05:04:09;16.27;;;10.93;;
2061;SDS011;11070;51.336;12.340;2024-03-22T05:06:35;15.83;;;10.23;;
2061;SDS011;11070;51.336;12.340;2024-03-22T05:09:01;13.90;;;10.70;;
2061;SDS011;11070;51.336;12.340;2024-03-22T05:11:28;13.43;;;9.60;;
2061;SDS011;11070;51.336;12.340;2024-03-22T05:13:54;13.30;;;10.27;;
2061;SDS011;11070;51.336;12.340;2024-03-22T05:16:20;17.23;;;10.87;;
2061;SDS011;11070;51.336;12.340;2024-03-22T05:18:45;13.23;;;10.37;;
2061;SDS011;11070;51.336;12.340;2024-03-22T05:21:11;14.00;;;11.07;;
2061;SDS011;11070;51.336;12.340;2024-03-22T05:23:36;14.47;;;9.97;;
2061;SDS011;11070;51.336;12.340;2024-03-22T05:26:02;13.57;;;10.13;;
2061;SDS011;11070;51.336;12.340;2024-03-22T05:28:29;13.20;;;9.98;;
2061;SDS011;11070;51.336;12.340;2024-03-22T05:30:55;12.70;;;9.30;;
2061;SDS011;11070;51.336;12.340;2024-03-22T05:33:21;13.80;;;10.17;;
2061;SDS011;11070;51.336;12.340;2024-03-22T05:35:47;13.17;;;9.37;;
2061;SDS011;11070;51.336;12.340;2024-03-22T05:38:12;13.53;;;9.30;;
2061;SDS011;11070;51.336;12.340;2024-03-22T05:40:38;15.57;;;10.27;;
2061;SDS011;11070;51.336;12.340;2024-03-22T05:43:04;13.23;;;9.67;;
2061;SDS011;11070;51.336;12.340;2024-03-22T05:45:29;16.38;;;10.82;;
2061;SDS011;11070;51.336;12.340;2024-03-22T05:47:55;15.40;;;9.53;;
2061;SDS011;11070;51.336;12.340;2024-03-22T05:50:21;17.90;;;11.00;;
2061;SDS011;11070;51.336;12.340;2024-03-22T05:52:47;14.33;;;9.80;;
2061;SDS011;11070;51.336;12.340;2024-03-22T05:55:12;16.17;;;10.30;;
2061;SDS011;11070;51.336;12.340;2024-03-22T05:57:38;13.70;;;10.37;;
2061;SDS011;11070;51.336;12.340;2024-03-22T06:00:05;14.63;;;9.97;;
2061;SDS011;11070;51.336;12.340;2024-03-22T06:02:32;14.60;;;10.40;;
2061;SDS011;11070;51.336;12.340;2024-03-22T06:04:58;15.60;;;10.97;;
2061;SDS011;11070;51.336;12.340;2024-03-22T06:07:25;14.98;;;10.35;;
2061;SDS011;11070;51.336;12.340;2024-03-22T06:09:51;15.17;;;9.90;;
2061;SDS011;11070;51.336;12.340;2024-03-22T06:12:17;10.80;;;8.50;;
2061;SDS011;11070;51.336;12.340;2024-03-22T06:14:43;11.33;;;8.53;;
2061;SDS011;11070;51.336;12.340;2024-03-22T06:17:09;16.13;;;9.48;;
2061;SDS011;11070;51.336;12.340;2024-03-22T06:19:35;11.48;;;8.60;;
2061;SDS011;11070;51.336;12.340;2024-03-22T06:22:02;13.27;;;7.80;;
2061;SDS011;11070;51.336;12.340;2024-03-22T06:24:28;11.20;;;7.60;;
2061;SDS011;11070;51.336;12.340;2024-03-22T06:26:54;12.50;;;8.03;;
2061;SDS011;11070;51.336;12.340;2024-03-22T06:29:19;10.73;;;8.53;;
2061;SDS011;11070;51.336;12.340;2024-03-22T06:31:47;10.65;;;8.18;;
2061;SDS011;11070;51.336;12.340;2024-03-22T06:34:15;12.50;;;9.00;;
2061;SDS011;11070;51.336;12.340;2024-03-22T06:36:40;11.57;;;8.10;;
2061;SDS011;11070;51.336;12.340;2024-03-22T06:39:06;13.50;;;8.60;;
2061;SDS011;11070;51.336;12.340;2024-03-22T06:41:33;12.48;;;8.77;;
2061;SDS011;11070;51.336;12.340;2024-03-22T06:43:59;11.93;;;9.48;;
2061;SDS011;11070;51.336;12.340;2024-03-22T06:46:25;12.37;;;9.03;;
2061;SDS011;11070;51.336;12.340;2024-03-22T06:48:51;13.30;;;9.10;;
2061;SDS011;11070;51.336;12.340;2024-03-22T06:51:17;14.63;;;8.70;;
2061;SDS011;11070;51.336;12.340;2024-03-22T06:53:43;14.00;;;9.10;;
2061;SDS011;11070;51.336;12.340;2024-03-22T06:56:10;11.38;;;9.10;;
2061;SDS011;11070;51.336;12.340;2024-03-22T06:58:36;12.73;;;9.88;;
2061;SDS011;11070;51.336;12.340;2024-03-22T07:01:03;13.55;;;10.05;;
2061;SDS011;11070;51.336;12.340;2024-03-22T07:03:29;12.97;;;9.20;;
2061;SDS011;11070;51.336;12.340;2024-03-22T07:05:55;14.50;;;9.63;;
2061;SDS011;11070;51.336;12.340;2024-03-22T07:08:21;13.60;;;9.60;;
2061;SDS011;11070;51.336;12.340;2024-03-22T07:10:46;18.70;;;10.97;;
2061;SDS011;11070;51.336;12.340;2024-03-22T07:13:12;17.00;;;10.53;;
2061;SDS011;11070;51.336;12.340;2024-03-22T07:15:38;16.63;;;10.63;;
2061;SDS011;11070;51.336;12.340;2024-03-22T07:18:03;12.90;;;9.33;;
2061;SDS011;11070;51.336;12.340;2024-03-22T07:20:30;14.40;;;9.90;;
2061;SDS011;11070;51.336;12.340;2024-03-22T07:22:56;17.27;;;10.68;;
2061;SDS011;11070;51.336;12.340;2024-03-22T07:25:22;13.67;;;10.20;;
2061;SDS011;11070;51.336;12.340;2024-03-22T07:27:47;16.67;;;10.93;;
2061;SDS011;11070;51.336;12.340;2024-03-22T07:30:14;14.60;;;10.25;;
2061;SDS011;11070;51.336;12.340;2024-03-22T07:32:40;14.33;;;10.57;;
2061;SDS011;11070;51.336;12.340;2024-03-22T07:35:05;20.20;;;9.90;;
2061;SDS011;11070;51.336;12.340;2024-03-22T07:37:32;12.48;;;9.43;;
2061;SDS011;11070;51.336;12.340;2024-03-22T07:39:59;14.77;;;10.10;;
2061;SDS011;11070;51.336;12.340;2024-03-22T07:42:25;14.50;;;10.20;;
2061;SDS011;11070;51.336;12.340;2024-03-22T07:44:50;17.67;;;12.00;;
2061;SDS011;11070;51.336;12.340;2024-03-22T07:47:19;14.00;;;9.90;;
2061;SDS011;11070;51.336;12.340;2024-03-22T07:49:44;14.00;;;10.70;;
2061;SDS011;11070;51.336;12.340;2024-03-22T07:52:10;14.63;;;11.13;;
2061;SDS011;11070;51.336;12.340;2024-03-22T07:54:36;13.87;;;10.00;;
2061;SDS011;11070;51.336;12.340;2024-03-22T07:57:01;15.60;;;11.00;;
2061;SDS011;11070;51.336;12.340;2024-03-22T07:59:28;14.73;;;10.80;;
2061;SDS011;11070;51.336;12.340;2024-03-22T08:01:54;15.80;;;10.67;;
2061;SDS011;11070;51.336;12.340;2024-03-22T08:04:20;18.70;;;11.17;;
2061;SDS011;11070;51.336;12.340;2024-03-22T08:06:46;17.43;;;11.30;;
2061;SDS011;11070;51.336;12.340;2024-03-22T08:09:11;21.20;;;12.50;;
2061;SDS011;11070;51.336;12.340;2024-03-22T08:11:37;19.17;;;12.73;;
2061;SDS011;11070;51.336;12.340;2024-03-22T08:14:03;20.20;;;11.63;;
2061;SDS011;11070;51.336;12.340;2024-03-22T08:16:29;17.77;;;11.73;;
2061;SDS011;11070;51.336;12.340;2024-03-22T08:18:55;17.00;;;12.05;;
2061;SDS011;11070;51.336;12.340;2024-03-22T08:21:22;17.75;;;12.50;;
2061;SDS011;11070;51.336;12.340;2024-03-22T08:23:48;18.33;;;12.80;;
2061;SDS011;11070;51.336;12.340;2024-03-22T08:26:14;20.00;;;12.82;;
2061;SDS011;11070;51.336;12.340;2024-03-22T08:28:40;19.33;;;13.57;;
2061;SDS011;11070;51.336;12.340;2024-03-22T08:31:05;21.53;;;14.13;;
2061;SDS011;11070;51.336;12.340;2024-03-22T08:33:31;22.17;;;14.00;;
2061;SDS011;11070;51.336;12.340;2024-03-22T08:35:57;21.27;;;14.30;;
2061;SDS011;11070;51.336;12.340;2024-03-22T08:38:22;22.37;;;14.80;;
2061;SDS011;11070;51.336;12.340;2024-03-22T08:40:49;23.08;;;15.68;;
2061;SDS011;11070;51.336;12.340;2024-03-22T08:43:15;19.52;;;15.32;;
2061;SDS011;11070;51.336;12.340;2024-03-22T08:45:41;19.73;;;14.83;;
2061;SDS011;11070;51.336;12.340;2024-03-22T08:48:07;21.80;;;14.90;;
2061;SDS011;11070;51.336;12.340;2024-03-22T08:50:33;22.00;;;15.20;;
2061;SDS011;11070;51.336;12.340;2024-03-22T08:52:59;22.90;;;15.02;;
2061;SDS011;11070;51.336;12.340;2024-03-22T08:55:28;23.73;;;14.88;;
2061;SDS011;11070;51.336;12.340;2024-03-22T08:57:54;18.92;;;14.70;;
2061;SDS011;11070;51.336;12.340;2024-03-22T09:00:19;21.80;;;14.70;;
2061;SDS011;11070;51.336;12.340;2024-03-22T09:02:45;22.47;;;16.37;;
2061;SDS011;11070;51.336;12.340;2024-03-22T09:05:12;24.83;;;15.77;;
2061;SDS011;11070;51.336;12.340;2024-03-22T09:07:38;24.00;;;13.77;;
2061;SDS011;11070;51.336;12.340;2024-03-22T09:10:04;23.40;;;14.93;;
2061;SDS011;11070;51.336;12.340;2024-03-22T09:12:31;20.67;;;14.70;;
2061;SDS011;11070;51.336;12.340;2024-03-22T09:14:57;19.37;;;13.50;;
2061;SDS011;11070;51.336;12.340;2024-03-22T09:17:22;19.88;;;15.20;;
2061;SDS011;11070;51.336;12.340;2024-03-22T09:19:48;18.93;;;14.20;;
2061;SDS011;11070;51.336;12.340;2024-03-22T09:22:14;19.87;;;13.40;;
2061;SDS011;11070;51.336;12.340;2024-03-22T09:24:40;20.42;;;15.05;;
2061;SDS011;11070;51.336;12.340;2024-03-22T09:27:06;19.48;;;13.15;;
2061;SDS011;11070;51.336;12.340;2024-03-22T09:29:37;20.70;;;16.13;;
2061;SDS011;11070;51.336;12.340;2024-03-22T09:32:03;19.92;;;14.13;;
2061;SDS011;11070;51.336;12.340;2024-03-22T09:34:29;20.17;;;13.25;;
2061;SDS011;11070;51.336;12.340;2024-03-22T09:36:56;18.63;;;14.27;;
2061;SDS011;11070;51.336;12.340;2024-03-22T09:39:22;18.40;;;13.05;;
2061;SDS011;11070;51.336;12.340;2024-03-22T09:41:48;17.63;;;13.50;;
2061;SDS011;11070;51.336;12.340;2024-03-22T09:44:17;17.65;;;11.95;;
2061;SDS011;11070;51.336;12.340;2024-03-22T09:46:44;17.23;;;12.18;;
2061;SDS011;11070;51.336;12.340;2024-03-22T09:49:11;16.80;;;11.85;;
2061;SDS011;11070;51.336;12.340;2024-03-22T09:51:41;18.38;;;12.20;;
2061;SDS011;11070;51.336;12.340;2024-03-22T09:54:11;15.90;;;11.95;;
2061;SDS011;11070;51.336;12.340;2024-03-22T09:56:39;16.13;;;11.82;;
2061;SDS011;11070;51.336;12.340;2024-03-22T09:59:06;15.90;;;10.65;;
2061;SDS011;11070;51.336;12.340;2024-03-22T10:01:32;16.40;;;11.30;;
2061;SDS011;11070;51.336;12.340;2024-03-22T10:03:59;15.32;;;11.32;;
2061;SDS011;11070;51.336;12.340;2024-03-22T10:06:25;15.95;;;10.70;;
2061;SDS011;11070;51.336;12.340;2024-03-22T10:21:00;16.27;;;12.07;;
2061;SDS011;11070;51.336;12.340;2024-03-22T10:23:27;14.50;;;10.63;;
2061;SDS011;11070;51.336;12.340;2024-03-22T10:25:53;16.80;;;11.93;;
2061;SDS011;11070;51.336;12.340;2024-03-22T10:28:21;15.35;;;11.35;;
2061;SDS011;11070;51.336;12.340;2024-03-22T10:30:47;15.30;;;11.30;;
2061;SDS011;11070;51.336;12.340;2024-03-22T10:33:15;11.85;;;10.10;;
2061;SDS011;11070;51.336;12.340;2024-03-22T10:35:42;15.27;;;11.30;;
2061;SDS011;11070;51.336;12.340;2024-03-22T10:38:09;14.05;;;10.60;;
2061;SDS011;11070;51.336;12.340;2024-03-22T10:40:37;12.85;;;10.55;;
2061;SDS011;11070;51.336;12.340;2024-03-22T10:43:05;16.90;;;10.40;;
2061;SDS011;11070;51.336;12.340;2024-03-22T10:45:31;14.70;;;9.93;;
2061;SDS011;11070;51.336;12.340;2024-03-22T10:47:58;15.32;;;9.20;;
2061;SDS011;11070;51.336;12.340;2024-03-22T10:50:27;13.05;;;9.63;;
2061;SDS011;11070;51.336;12.340;2024-03-22T10:52:56;13.27;;;9.40;;
2061;SDS011;11070;51.336;12.340;2024-03-22T10:55:33;14.98;;;10.52;;
2061;SDS011;11070;51.336;12.340;2024-03-22T10:58:02;13.70;;;9.80;;
2061;SDS011;11070;51.336;12.340;2024-03-22T11:00:30;15.15;;;10.75;;
2061;SDS011;11070;51.336;12.340;2024-03-22T11:02:58;14.93;;;11.10;;
2061;SDS011;11070;51.336;12.340;2024-03-22T11:05:27;13.15;;;10.57;;
2061;SDS011;11070;51.336;12.340;2024-03-22T11:07:59;13.77;;;10.90;;
2061;SDS011;11070;51.336;12.340;2024-03-22T11:10:29;12.77;;;10.75;;
2061;SDS011;11070;51.336;12.340;2024-03-22T11:12:55;23.75;;;11.45;;
2061;SDS011;11070;51.336;12.340;2024-03-22T11:15:21;16.77;;;11.57;;
2061;SDS011;11070;51.336;12.340;2024-03-22T11:17:47;15.13;;;11.85;;
2061;SDS011;11070;51.336;12.340;2024-03-22T11:20:14;14.45;;;10.68;;
2061;SDS011;11070;51.336;12.340;2024-03-22T11:22:40;16.40;;;11.60;;
2061;SDS011;11070;51.336;12.340;2024-03-22T11:25:06;13.77;;;10.40;;
2061;SDS011;11070;51.336;12.340;2024-03-22T11:27:32;14.73;;;10.93;;
2061;SDS011;11070;51.336;12.340;2024-03-22T11:29:58;14.53;;;12.10;;
2061;SDS011;11070;51.336;12.340;2024-03-22T11:32:23;17.80;;;12.57;;
2061;SDS011;11070;51.336;12.340;2024-03-22T11:34:49;15.67;;;12.07;;
2061;SDS011;11070;51.336;12.340;2024-03-22T11:37:15;17.03;;;12.47;;
2061;SDS011;11070;51.336;12.340;2024-03-22T11:39:41;13.43;;;11.80;;
2061;SDS011;11070;51.336;12.340;2024-03-22T11:42:06;16.30;;;12.20;;
2061;SDS011;11070;51.336;12.340;2024-03-22T11:44:34;14.23;;;12.45;;
2061;SDS011;11070;51.336;12.340;2024-03-22T11:47:05;18.00;;;12.65;;
2061;SDS011;11070;51.336;12.340;2024-03-22T11:49:31;15.95;;;11.95;;
2061;SDS011;11070;51.336;12.340;2024-03-22T11:51:57;15.73;;;13.20;;
2061;SDS011;11070;51.336;12.340;2024-03-22T11:54:23;15.30;;;12.70;;
2061;SDS011;11070;51.336;12.340;2024-03-22T11:56:49;16.77;;;13.60;;
2061;SDS011;11070;51.336;12.340;2024-03-22T11:59:15;19.40;;;13.52;;
2061;SDS011;11070;51.336;12.340;2024-03-22T12:01:44;17.13;;;13.82;;
2061;SDS011;11070;51.336;12.340;2024-03-22T12:04:10;16.40;;;14.03;;
2061;SDS011;11070;51.336;12.340;2024-03-22T12:06:41;16.88;;;13.85;;
2061;SDS011;11070;51.336;12.340;2024-03-22T12:09:11;19.05;;;14.60;;
2061;SDS011;11070;51.336;12.340;2024-03-22T12:11:39;18.38;;;13.88;;
2061;SDS011;11070;51.336;12.340;2024-03-22T12:14:04;17.05;;;14.57;;
2061;SDS011;11070;51.336;12.340;2024-03-22T12:16:30;19.50;;;15.07;;
2061;SDS011;11070;51.336;12.340;2024-03-22T12:18:57;21.35;;;16.38;;
2061;SDS011;11070;51.336;12.340;2024-03-22T12:21:22;19.40;;;15.37;;
2061;SDS011;11070;51.336;12.340;2024-03-22T12:23:49;23.38;;;14.85;;
2061;SDS011;11070;51.336;12.340;2024-03-22T12:26:14;19.50;;;15.50;;
2061;SDS011;11070;51.336;12.340;2024-03-22T12:28:40;20.07;;;15.57;;
2061;SDS011;11070;51.336;12.340;2024-03-22T12:31:07;20.17;;;15.97;;
2061;SDS011;11070;51.336;12.340;2024-03-22T12:33:36;27.00;;;17.60;;
2061;SDS011;11070;51.336;12.340;2024-03-22T12:36:03;17.30;;;15.50;;
2061;SDS011;11070;51.336;12.340;2024-03-22T12:38:29;22.38;;;16.55;;
2061;SDS011;11070;51.336;12.340;2024-03-22T12:40:55;19.02;;;15.70;;
2061;SDS011;11070;51.336;12.340;2024-03-22T12:43:21;20.67;;;16.05;;
2061;SDS011;11070;51.336;12.340;2024-03-22T12:45:47;21.90;;;17.17;;
2061;SDS011;11070;51.336;12.340;2024-03-22T12:48:12;21.10;;;17.57;;
2061;SDS011;11070;51.336;12.340;2024-03-22T12:50:38;23.00;;;17.63;;
2061;SDS011;11070;51.336;12.340;2024-03-22T12:53:04;26.47;;;18.80;;
2061;SDS011;11070;51.336;12.340;2024-03-22T12:55:30;21.23;;;16.73;;
2061;SDS011;11070;51.336;12.340;2024-03-22T12:57:56;31.88;;;20.90;;
2061;SDS011;11070;51.336;12.340;2024-03-22T13:00:24;27.08;;;19.85;;
2061;SDS011;11070;51.336;12.340;2024-03-22T13:02:50;24.40;;;18.40;;
2061;SDS011;11070;51.336;12.340;2024-03-22T13:05:16;22.93;;;17.73;;
2061;SDS011;11070;51.336;12.340;2024-03-22T13:07:42;31.27;;;20.73;;
2061;SDS011;11070;51.336;12.340;2024-03-22T13:10:10;29.50;;;20.23;;
2061;SDS011;11070;51.336;12.340;2024-03-22T13:12:36;25.15;;;20.00;;
2061;SDS011;11070;51.336;12.340;2024-03-22T13:15:02;23.40;;;18.40;;
2061;SDS011;11070;51.336;12.340;2024-03-22T13:17:32;24.48;;;19.17;;
2061;SDS011;11070;51.336;12.340;2024-03-22T13:19:58;24.25;;;18.40;;
2061;SDS011;11070;51.336;12.340;2024-03-22T13:22:24;21.40;;;18.00;;
2061;SDS011;11070;51.336;12.340;2024-03-22T13:24:50;21.47;;;17.73;;
2061;SDS011;11070;51.336;12.340;2024-03-22T13:27:16;22.70;;;17.67;;
2061;SDS011;11070;51.336;12.340;2024-03-22T13:29:42;20.73;;;17.60;;
2061;SDS011;11070;51.336;12.340;2024-03-22T13:32:08;21.73;;;17.03;;
2061;SDS011;11070;51.336;12.340;2024-03-22T13:34:35;20.20;;;17.30;;
2061;SDS011;11070;51.336;12.340;2024-03-22T13:37:03;22.65;;;17.52;;
2061;SDS011;11070;51.336;12.340;2024-03-22T13:39:44;18.35;;;16.33;;
2061;SDS011;11070;51.336;12.340;2024-03-22T13:42:14;18.90;;;15.80;;
2061;SDS011;11070;51.336;12.340;2024-03-22T13:44:41;20.15;;;15.32;;
2061;SDS011;11070;51.336;12.340;2024-03-22T13:47:07;19.20;;;15.75;;
2061;SDS011;11070;51.336;12.340;2024-03-22T13:49:35;19.03;;;15.53;;
2061;SDS011;11070;51.336;12.340;2024-03-22T13:52:04;18.55;;;15.25;;
2061;SDS011;11070;51.336;12.340;2024-03-22T13:54:30;20.20;;;15.33;;
2061;SDS011;11070;51.336;12.340;2024-03-22T13:56:56;22.77;;;15.52;;
2061;SDS011;11070;51.336;12.340;2024-03-22T13:59:22;21.30;;;15.67;;
2061;SDS011;11070;51.336;12.340;2024-03-22T14:01:48;21.52;;;15.73;;
2061;SDS011;11070;51.336;12.340;2024-03-22T14:04:14;21.90;;;16.13;;
2061;SDS011;11070;51.336;12.340;2024-03-22T14:06:40;19.03;;;16.10;;
2061;SDS011;11070;51.336;12.340;2024-03-22T14:09:07;20.63;;;15.90;;
2061;SDS011;11070;51.336;12.340;2024-03-22T14:11:35;19.95;;;15.35;;
2061;SDS011;11070;51.336;12.340;2024-03-22T14:14:01;23.27;;;17.33;;
2061;SDS011;11070;51.336;12.340;2024-03-22T14:16:27;21.33;;;17.33;;
2061;SDS011;11070;51.336;12.340;2024-03-22T14:18:53;20.00;;;17.33;;
2061;SDS011;11070;51.336;12.340;2024-03-22T14:21:19;19.60;;;15.90;;
2061;SDS011;11070;51.336;12.340;2024-03-22T14:23:48;20.95;;;16.65;;
2061;SDS011;11070;51.336;12.340;2024-03-22T14:26:17;20.70;;;16.80;;
2061;SDS011;11070;51.336;12.340;2024-03-22T14:28:44;20.35;;;17.50;;